sensor_id;sensor_type;location;lat;lon;timestamp;P1;durP1;ratioP1;P2;durP2;ratioP2
46006;SDS011;31738;50.188;8.524;2023-03-14T00:01:16;5.07;;;2.25;;
46006;SDS011;31738;50.188;8.524;2023-03-14T00:03:45;2.45;;;1.80;;
46006;SDS011;31738;50.188;8.524;2023-03-14T00:06:19;5.60;;;2.10;;
46006;SDS011;31738;50.188;8.524;2023-03-14T00:08:46;4.03;;;2.00;;
46006;SDS011;31738;50.188;8.524;2023-03-14T00:11:16;5.07;;;2.20;;
46006;SDS011;31738;50.188;8.524;2023-03-14T00:13:47;5.97;;;2.35;;
46006;SDS011;31738;50.188;8.524;2023-03-14T00:16:19;5.93;;;2.60;;
46006;SDS011;31738;50.188;8.524;2023-03-14T00:18:45;4.47;;;2.30;;
46006;SDS011;31738;50.188;8.524;2023-03-14T00:21:14;6.63;;;2.33;;
46006;SDS011;31738;50.188;8.524;2023-03-14T00:23:43;3.65;;;1.98;;
46006;SDS011;31738;50.188;8.524;2023-03-14T00:26:10;5.75;;;2.22;;
46006;SDS011;31738;50.188;8.524;2023-03-14T00:28:45;4.93;;;1.85;;
46006;SDS011;31738;50.188;8.524;2023-03-14T00:31:13;4.25;;;1.90;;
46006;SDS011;31738;50.188;8.524;2023-03-14T00:33:43;6.05;;;2.08;;
46006;SDS011;31738;50.188;8.524;2023-03-14T00:36:11;6.97;;;2.00;;
46006;SDS011;31738;50.188;8.524;2023-03-14T00:38:39;5.05;;;1.90;;
46006;SDS011;31738;50.188;8.524;2023-03-14T00:41:10;5.07;;;1.70;;
46006;SDS011;31738;50.188;8.524;2023-03-14T00:43:37;9.25;;;2.17;;
46006;SDS011;31738;50.188;8.524;2023-03-14T00:46:03;4.40;;;1.80;;
46006;SDS011;31738;50.188;8.524;2023-03-14T00:48:30;4.90;;;1.52;;
46006;SDS011;31738;50.188;8.524;2023-03-14T00:50:55;4.32;;;1.75;;
46006;SDS011;31738;50.188;8.524;2023-03-14T00:53:21;9.68;;;1.83;;
46006;SDS011;31738;50.188;8.524;2023-03-14T00:55:47;7.45;;;1.90;;
46006;SDS011;31738;50.188;8.524;2023-03-14T00:58:14;7.70;;;2.10;;
46006;SDS011;31738;50.188;8.524;2023-03-14T01:00:41;12.25;;;2.42;;
46006;SDS011;31738;50.188;8.524;2023-03-14T01:03:08;8.65;;;2.10;;
46006;SDS011;31738;50.188;8.524;2023-03-14T01:05:40;6.68;;;1.73;;
46006;SDS011;31738;50.188;8.524;2023-03-14T01:08:07;9.38;;;2.28;;
46006;SDS011;31738;50.188;8.524;2023-03-14T01:10:34;5.80;;;1.58;;
46006;SDS011;31738;50.188;8.524;2023-03-14T01:13:04;14.35;;;2.25;;
46006;SDS011;31738;50.188;8.524;2023-03-14T01:15:33;6.50;;;1.98;;
46006;SDS011;31738;50.188;8.524;2023-03-14T01:18:01;13.43;;;2.10;;
46006;SDS011;31738;50.188;8.524;2023-03-14T01:20:27;9.88;;;1.95;;
46006;SDS011;31738;50.188;8.524;2023-03-14T01:22:53;11.98;;;2.13;;
46006;SDS011;31738;50.188;8.524;2023-03-14T01:25:18;8.70;;;1.70;;
46006;SDS011;31738;50.188;8.524;2023-03-14T01:27:44;9.73;;;1.92;;
46006;SDS011;31738;50.188;8.524;2023-03-14T01:30:11;12.73;;;2.25;;
46006;SDS011;31738;50.188;8.524;2023-03-14T01:35:21;5.05;;;1.77;;
46006;SDS011;31738;50.188;8.524;2023-03-14T01:37:47;9.82;;;1.83;;
46006;SDS011;31738;50.188;8.524;2023-03-14T01:40:17;14.45;;;1.92;;
46006;SDS011;31738;50.188;8.524;2023-03-14T01:42:44;7.50;;;1.70;;
46006;SDS011;31738;50.188;8.524;2023-03-14T01:48:23;12.23;;;1.90;;
46006;SDS011;31738;50.188;8.524;2023-03-14T01:50:59;8.90;;;1.77;;
46006;SDS011;31738;50.188;8.524;2023-03-14T01:53:27;9.70;;;1.90;;
46006;SDS011;31738;50.188;8.524;2023-03-14T01:56:00;8.38;;;2.05;;
46006;SDS011;31738;50.188;8.524;2023-03-14T01:58:27;9.02;;;1.90;;
46006;SDS011;31738;50.188;8.524;2023-03-14T02:00:59;6.95;;;1.85;;
46006;SDS011;31738;50.188;8.524;2023-03-14T02:03:27;12.07;;;1.80;;
46006;SDS011;31738;50.188;8.524;2023-03-14T02:05:56;9.48;;;1.85;;
46006;SDS011;31738;50.188;8.524;2023-03-14T02:08:30;13.67;;;2.23;;
46006;SDS011;31738;50.188;8.524;2023-03-14T02:11:00;5.55;;;1.80;;
46006;SDS011;31738;50.188;8.524;2023-03-14T02:13:55;9.90;;;1.88;;
46006;SDS011;31738;50.188;8.524;2023-03-14T02:16:42;7.50;;;1.70;;
46006;SDS011;31738;50.188;8.524;2023-03-14T02:19:54;10.85;;;1.70;;
46006;SDS011;31738;50.188;8.524;2023-03-14T02:22:33;8.88;;;1.83;;
46006;SDS011;31738;50.188;8.524;2023-03-14T02:27:47;8.85;;;1.55;;
46006;SDS011;31738;50.188;8.524;2023-03-14T02:30:14;9.75;;;1.85;;
46006;SDS011;31738;50.188;8.524;2023-03-14T02:32:52;9.52;;;1.90;;
46006;SDS011;31738;50.188;8.524;2023-03-14T02:35:27;8.23;;;1.70;;
46006;SDS011;31738;50.188;8.524;2023-03-14T02:37:55;7.72;;;1.65;;
46006;SDS011;31738;50.188;8.524;2023-03-14T02:40:31;8.40;;;1.90;;
46006;SDS011;31738;50.188;8.524;2023-03-14T02:43:00;10.52;;;2.35;;
46006;SDS011;31738;50.188;8.524;2023-03-14T02:48:06;10.75;;;1.88;;
46006;SDS011;31738;50.188;8.524;2023-03-14T02:50:56;9.75;;;1.70;;
46006;SDS011;31738;50.188;8.524;2023-03-14T02:53:48;8.90;;;2.05;;
46006;SDS011;31738;50.188;8.524;2023-03-14T03:00:18;9.80;;;1.90;;
46006;SDS011;31738;50.188;8.524;2023-03-14T03:02:56;9.48;;;2.22;;
46006;SDS011;31738;50.188;8.524;2023-03-14T03:05:27;10.52;;;2.15;;
46006;SDS011;31738;50.188;8.524;2023-03-14T03:08:02;5.28;;;1.60;;
46006;SDS011;31738;50.188;8.524;2023-03-14T03:10:32;9.38;;;2.00;;
46006;SDS011;31738;50.188;8.524;2023-03-14T03:12:58;15.13;;;1.95;;
46006;SDS011;31738;50.188;8.524;2023-03-14T03:15:44;6.47;;;2.13;;
46006;SDS011;31738;50.188;8.524;2023-03-14T03:18:18;10.38;;;2.08;;
46006;SDS011;31738;50.188;8.524;2023-03-14T03:20:56;10.63;;;2.05;;
46006;SDS011;31738;50.188;8.524;2023-03-14T03:23:34;11.50;;;2.15;;
46006;SDS011;31738;50.188;8.524;2023-03-14T03:25:59;8.68;;;1.80;;
46006;SDS011;31738;50.188;8.524;2023-03-14T03:28:25;5.55;;;2.03;;
46006;SDS011;31738;50.188;8.524;2023-03-14T03:31:06;12.55;;;2.72;;
46006;SDS011;31738;50.188;8.524;2023-03-14T03:33:39;12.75;;;2.30;;
46006;SDS011;31738;50.188;8.524;2023-03-14T03:36:27;15.60;;;2.50;;
46006;SDS011;31738;50.188;8.524;2023-03-14T03:39:14;11.73;;;2.72;;
46006;SDS011;31738;50.188;8.524;2023-03-14T03:41:46;10.95;;;2.20;;
46006;SDS011;31738;50.188;8.524;2023-03-14T03:44:11;7.30;;;2.28;;
46006;SDS011;31738;50.188;8.524;2023-03-14T03:46:40;5.57;;;2.00;;
46006;SDS011;31738;50.188;8.524;2023-03-14T03:49:07;13.52;;;2.92;;
46006;SDS011;31738;50.188;8.524;2023-03-14T03:51:33;5.75;;;2.10;;
46006;SDS011;31738;50.188;8.524;2023-03-14T03:53:58;9.35;;;2.20;;
46006;SDS011;31738;50.188;8.524;2023-03-14T03:56:29;6.97;;;1.90;;
46006;SDS011;31738;50.188;8.524;2023-03-14T03:58:54;9.80;;;2.17;;
46006;SDS011;31738;50.188;8.524;2023-03-14T04:01:20;12.27;;;2.22;;
46006;SDS011;31738;50.188;8.524;2023-03-14T04:03:49;8.18;;;1.80;;
46006;SDS011;31738;50.188;8.524;2023-03-14T04:06:14;12.20;;;2.33;;
46006;SDS011;31738;50.188;8.524;2023-03-14T04:08:43;8.38;;;1.70;;
46006;SDS011;31738;50.188;8.524;2023-03-14T04:11:17;10.43;;;2.15;;
46006;SDS011;31738;50.188;8.524;2023-03-14T04:13:51;10.68;;;2.15;;
46006;SDS011;31738;50.188;8.524;2023-03-14T04:16:19;9.48;;;1.95;;
46006;SDS011;31738;50.188;8.524;2023-03-14T04:18:51;10.23;;;2.00;;
46006;SDS011;31738;50.188;8.524;2023-03-14T04:21:19;9.35;;;1.98;;
46006;SDS011;31738;50.188;8.524;2023-03-14T04:23:48;8.45;;;2.13;;
46006;SDS011;31738;50.188;8.524;2023-03-14T04:26:15;6.78;;;2.50;;
46006;SDS011;31738;50.188;8.524;2023-03-14T04:28:41;9.48;;;1.98;;
46006;SDS011;31738;50.188;8.524;2023-03-14T04:31:09;11.52;;;1.80;;
46006;SDS011;31738;50.188;8.524;2023-03-14T04:33:35;10.73;;;1.95;;
46006;SDS011;31738;50.188;8.524;2023-03-14T04:36:02;6.68;;;1.88;;
46006;SDS011;31738;50.188;8.524;2023-03-14T04:38:29;6.93;;;2.03;;
46006;SDS011;31738;50.188;8.524;2023-03-14T04:40:57;10.07;;;2.35;;
46006;SDS011;31738;50.188;8.524;2023-03-14T04:43:30;9.98;;;1.58;;
46006;SDS011;31738;50.188;8.524;2023-03-14T04:46:02;8.88;;;1.92;;
46006;SDS011;31738;50.188;8.524;2023-03-14T04:48:28;10.50;;;1.95;;
46006;SDS011;31738;50.188;8.524;2023-03-14T04:50:53;7.00;;;1.90;;
46006;SDS011;31738;50.188;8.524;2023-03-14T04:53:19;8.43;;;1.90;;
46006;SDS011;31738;50.188;8.524;2023-03-14T04:55:51;6.18;;;1.63;;
46006;SDS011;31738;50.188;8.524;2023-03-14T04:58:20;5.13;;;1.30;;
46006;SDS011;31738;50.188;8.524;2023-03-14T05:00:48;8.02;;;1.60;;
46006;SDS011;31738;50.188;8.524;2023-03-14T05:03:33;8.85;;;1.52;;
46006;SDS011;31738;50.188;8.524;2023-03-14T05:09:03;8.10;;;1.35;;
46006;SDS011;31738;50.188;8.524;2023-03-14T05:11:35;8.95;;;1.45;;
46006;SDS011;31738;50.188;8.524;2023-03-14T05:14:13;9.95;;;1.60;;
46006;SDS011;31738;50.188;8.524;2023-03-14T05:16:57;10.10;;;1.75;;
46006;SDS011;31738;50.188;8.524;2023-03-14T05:19:35;9.43;;;1.40;;
46006;SDS011;31738;50.188;8.524;2023-03-14T05:22:11;8.10;;;1.25;;
46006;SDS011;31738;50.188;8.524;2023-03-14T05:24:54;6.35;;;1.63;;
46006;SDS011;31738;50.188;8.524;2023-03-14T05:27:42;7.32;;;1.10;;
46006;SDS011;31738;50.188;8.524;2023-03-14T05:30:27;7.18;;;1.27;;
46006;SDS011;31738;50.188;8.524;2023-03-14T05:33:11;3.78;;;1.30;;
46006;SDS011;31738;50.188;8.524;2023-03-14T05:35:55;6.60;;;1.30;;
46006;SDS011;31738;50.188;8.524;2023-03-14T05:38:41;6.80;;;1.17;;
46006;SDS011;31738;50.188;8.524;2023-03-14T05:41:21;6.43;;;1.27;;
46006;SDS011;31738;50.188;8.524;2023-03-14T05:44:05;5.45;;;1.25;;
46006;SDS011;31738;50.188;8.524;2023-03-14T05:46:53;5.93;;;1.13;;
46006;SDS011;31738;50.188;8.524;2023-03-14T05:49:36;4.78;;;1.40;;
46006;SDS011;31738;50.188;8.524;2023-03-14T05:52:18;6.97;;;1.00;;
46006;SDS011;31738;50.188;8.524;2023-03-14T05:54:55;8.05;;;1.30;;
46006;SDS011;31738;50.188;8.524;2023-03-14T05:57:47;3.78;;;1.08;;
46006;SDS011;31738;50.188;8.524;2023-03-14T06:00:25;4.50;;;0.90;;
46006;SDS011;31738;50.188;8.524;2023-03-14T06:03:11;5.53;;;0.88;;
46006;SDS011;31738;50.188;8.524;2023-03-14T06:05:41;5.30;;;1.13;;
46006;SDS011;31738;50.188;8.524;2023-03-14T06:08:06;7.95;;;1.30;;
46006;SDS011;31738;50.188;8.524;2023-03-14T06:10:32;7.32;;;1.20;;
46006;SDS011;31738;50.188;8.524;2023-03-14T06:12:59;5.68;;;1.20;;
46006;SDS011;31738;50.188;8.524;2023-03-14T06:15:25;6.70;;;1.17;;
46006;SDS011;31738;50.188;8.524;2023-03-14T06:17:56;10.15;;;1.00;;
46006;SDS011;31738;50.188;8.524;2023-03-14T06:20:22;4.93;;;1.13;;
46006;SDS011;31738;50.188;8.524;2023-03-14T06:22:48;3.90;;;1.20;;
46006;SDS011;31738;50.188;8.524;2023-03-14T06:25:14;3.95;;;1.10;;
46006;SDS011;31738;50.188;8.524;2023-03-14T06:27:43;7.82;;;1.17;;
46006;SDS011;31738;50.188;8.524;2023-03-14T06:30:09;5.40;;;1.20;;
46006;SDS011;31738;50.188;8.524;2023-03-14T06:32:35;5.15;;;1.17;;
46006;SDS011;31738;50.188;8.524;2023-03-14T06:35:05;5.70;;;1.20;;
46006;SDS011;31738;50.188;8.524;2023-03-14T06:37:35;4.05;;;0.90;;
46006;SDS011;31738;50.188;8.524;2023-03-14T06:40:01;3.47;;;1.20;;
46006;SDS011;31738;50.188;8.524;2023-03-14T06:42:46;6.93;;;1.35;;
46006;SDS011;31738;50.188;8.524;2023-03-14T06:45:13;4.60;;;1.23;;
46006;SDS011;31738;50.188;8.524;2023-03-14T06:47:39;4.63;;;1.30;;
46006;SDS011;31738;50.188;8.524;2023-03-14T06:50:05;3.90;;;1.05;;
46006;SDS011;31738;50.188;8.524;2023-03-14T06:52:32;4.55;;;1.40;;
46006;SDS011;31738;50.188;8.524;2023-03-14T06:54:58;6.50;;;1.30;;
46006;SDS011;31738;50.188;8.524;2023-03-14T06:57:25;5.15;;;1.10;;
46006;SDS011;31738;50.188;8.524;2023-03-14T06:59:51;3.97;;;1.20;;
46006;SDS011;31738;50.188;8.524;2023-03-14T07:02:17;6.35;;;1.25;;
46006;SDS011;31738;50.188;8.524;2023-03-14T07:04:42;7.13;;;1.40;;
46006;SDS011;31738;50.188;8.524;2023-03-14T07:07:09;4.82;;;1.20;;
46006;SDS011;31738;50.188;8.524;2023-03-14T07:09:35;6.03;;;1.40;;
46006;SDS011;31738;50.188;8.524;2023-03-14T07:12:01;4.57;;;1.30;;
46006;SDS011;31738;50.188;8.524;2023-03-14T07:14:28;5.63;;;1.85;;
46006;SDS011;31738;50.188;8.524;2023-03-14T07:16:55;3.10;;;1.48;;
46006;SDS011;31738;50.188;8.524;2023-03-14T07:19:21;7.68;;;1.73;;
46006;SDS011;31738;50.188;8.524;2023-03-14T07:21:46;8.25;;;1.70;;
46006;SDS011;31738;50.188;8.524;2023-03-14T07:24:14;6.95;;;1.45;;
46006;SDS011;31738;50.188;8.524;2023-03-14T07:26:39;3.97;;;1.70;;
46006;SDS011;31738;50.188;8.524;2023-03-14T07:29:05;3.92;;;1.67;;
46006;SDS011;31738;50.188;8.524;2023-03-14T07:31:31;7.25;;;1.98;;
46006;SDS011;31738;50.188;8.524;2023-03-14T07:33:57;4.07;;;1.67;;
46006;SDS011;31738;50.188;8.524;2023-03-14T07:36:26;6.18;;;1.65;;
46006;SDS011;31738;50.188;8.524;2023-03-14T07:38:52;7.63;;;1.85;;
46006;SDS011;31738;50.188;8.524;2023-03-14T07:41:36;5.15;;;1.58;;
46006;SDS011;31738;50.188;8.524;2023-03-14T07:44:35;4.85;;;1.38;;
46006;SDS011;31738;50.188;8.524;2023-03-14T07:47:00;4.57;;;1.90;;
46006;SDS011;31738;50.188;8.524;2023-03-14T07:49:26;6.55;;;1.92;;
46006;SDS011;31738;50.188;8.524;2023-03-14T07:51:52;8.30;;;1.70;;
46006;SDS011;31738;50.188;8.524;2023-03-14T07:54:17;6.75;;;1.70;;
46006;SDS011;31738;50.188;8.524;2023-03-14T07:56:43;4.00;;;1.50;;
46006;SDS011;31738;50.188;8.524;2023-03-14T07:59:08;7.60;;;1.80;;
46006;SDS011;31738;50.188;8.524;2023-03-14T08:01:34;5.80;;;1.90;;
46006;SDS011;31738;50.188;8.524;2023-03-14T08:03:59;6.80;;;1.90;;
46006;SDS011;31738;50.188;8.524;2023-03-14T08:06:25;3.92;;;1.55;;
46006;SDS011;31738;50.188;8.524;2023-03-14T08:08:50;3.20;;;1.65;;
46006;SDS011;31738;50.188;8.524;2023-03-14T08:11:16;6.05;;;1.88;;
46006;SDS011;31738;50.188;8.524;2023-03-14T08:13:41;5.78;;;2.03;;
46006;SDS011;31738;50.188;8.524;2023-03-14T08:16:07;8.07;;;1.92;;
46006;SDS011;31738;50.188;8.524;2023-03-14T08:18:33;5.32;;;1.70;;
46006;SDS011;31738;50.188;8.524;2023-03-14T08:20:58;5.15;;;1.95;;
46006;SDS011;31738;50.188;8.524;2023-03-14T08:23:24;4.13;;;2.00;;
46006;SDS011;31738;50.188;8.524;2023-03-14T08:25:50;9.88;;;2.08;;
46006;SDS011;31738;50.188;8.524;2023-03-14T08:28:16;6.82;;;2.53;;
46006;SDS011;31738;50.188;8.524;2023-03-14T08:30:42;5.57;;;2.13;;
46006;SDS011;31738;50.188;8.524;2023-03-14T08:33:09;7.95;;;2.22;;
46006;SDS011;31738;50.188;8.524;2023-03-14T08:35:34;4.28;;;2.08;;
46006;SDS011;31738;50.188;8.524;2023-03-14T08:38:02;6.40;;;2.53;;
46006;SDS011;31738;50.188;8.524;2023-03-14T08:40:28;8.55;;;2.70;;
46006;SDS011;31738;50.188;8.524;2023-03-14T08:42:54;9.55;;;2.38;;
46006;SDS011;31738;50.188;8.524;2023-03-14T08:45:19;6.13;;;2.22;;
46006;SDS011;31738;50.188;8.524;2023-03-14T08:47:45;6.70;;;2.60;;
46006;SDS011;31738;50.188;8.524;2023-03-14T08:50:10;7.70;;;2.70;;
46006;SDS011;31738;50.188;8.524;2023-03-14T08:52:37;8.55;;;2.90;;
46006;SDS011;31738;50.188;8.524;2023-03-14T08:55:05;5.10;;;2.53;;
46006;SDS011;31738;50.188;8.524;2023-03-14T08:57:32;8.43;;;2.83;;
46006;SDS011;31738;50.188;8.524;2023-03-14T08:59:58;8.88;;;2.70;;
46006;SDS011;31738;50.188;8.524;2023-03-14T09:02:24;6.47;;;2.42;;
46006;SDS011;31738;50.188;8.524;2023-03-14T09:04:51;8.05;;;2.65;;
46006;SDS011;31738;50.188;8.524;2023-03-14T09:07:17;7.05;;;2.80;;
46006;SDS011;31738;50.188;8.524;2023-03-14T09:09:43;5.05;;;2.92;;
46006;SDS011;31738;50.188;8.524;2023-03-14T09:12:08;7.60;;;3.30;;
46006;SDS011;31738;50.188;8.524;2023-03-14T09:14:34;6.88;;;3.38;;
46006;SDS011;31738;50.188;8.524;2023-03-14T09:17:00;7.50;;;3.00;;
46006;SDS011;31738;50.188;8.524;2023-03-14T09:19:25;5.22;;;3.25;;
46006;SDS011;31738;50.188;8.524;2023-03-14T09:21:50;7.70;;;3.10;;
46006;SDS011;31738;50.188;8.524;2023-03-14T09:24:16;8.55;;;3.70;;
46006;SDS011;31738;50.188;8.524;2023-03-14T09:26:42;6.72;;;3.55;;
46006;SDS011;31738;50.188;8.524;2023-03-14T09:29:08;5.95;;;3.20;;
46006;SDS011;31738;50.188;8.524;2023-03-14T09:31:33;8.63;;;4.05;;
46006;SDS011;31738;50.188;8.524;2023-03-14T09:34:00;7.10;;;3.42;;
46006;SDS011;31738;50.188;8.524;2023-03-14T09:36:25;10.07;;;4.30;;
46006;SDS011;31738;50.188;8.524;2023-03-14T09:38:51;6.65;;;3.72;;
46006;SDS011;31738;50.188;8.524;2023-03-14T09:41:18;7.50;;;4.15;;
46006;SDS011;31738;50.188;8.524;2023-03-14T09:43:48;8.32;;;4.10;;
46006;SDS011;31738;50.188;8.524;2023-03-14T09:46:18;5.63;;;4.28;;
46006;SDS011;31738;50.188;8.524;2023-03-14T09:48:45;8.07;;;3.97;;
46006;SDS011;31738;50.188;8.524;2023-03-14T09:51:14;5.57;;;3.83;;
46006;SDS011;31738;50.188;8.524;2023-03-14T09:53:43;8.95;;;4.38;;
46006;SDS011;31738;50.188;8.524;2023-03-14T09:56:12;7.28;;;4.05;;
46006;SDS011;31738;50.188;8.524;2023-03-14T09:58:42;8.30;;;4.10;;
46006;SDS011;31738;50.188;8.524;2023-03-14T10:01:13;7.15;;;4.05;;
46006;SDS011;31738;50.188;8.524;2023-03-14T10:03:43;7.45;;;4.05;;
46006;SDS011;31738;50.188;8.524;2023-03-14T10:06:13;8.27;;;4.50;;
46006;SDS011;31738;50.188;8.524;2023-03-14T10:08:43;6.78;;;4.00;;
46006;SDS011;31738;50.188;8.524;2023-03-14T10:11:14;6.40;;;3.63;;
46006;SDS011;31738;50.188;8.524;2023-03-14T10:13:50;6.40;;;3.90;;
46006;SDS011;31738;50.188;8.524;2023-03-14T10:16:32;8.32;;;4.03;;
46006;SDS011;31738;50.188;8.524;2023-03-14T10:19:16;8.65;;;4.50;;
46006;SDS011;31738;50.188;8.524;2023-03-14T10:21:43;7.63;;;4.22;;
46006;SDS011;31738;50.188;8.524;2023-03-14T10:24:15;6.60;;;4.10;;
46006;SDS011;31738;50.188;8.524;2023-03-14T10:26:47;7.40;;;4.40;;
46006;SDS011;31738;50.188;8.524;2023-03-14T10:29:15;6.50;;;4.50;;
46006;SDS011;31738;50.188;8.524;2023-03-14T10:31:55;8.77;;;4.40;;
46006;SDS011;31738;50.188;8.524;2023-03-14T10:34:38;6.65;;;4.65;;
46006;SDS011;31738;50.188;8.524;2023-03-14T10:37:18;8.57;;;5.20;;
46006;SDS011;31738;50.188;8.524;2023-03-14T10:39:50;7.07;;;5.78;;
46006;SDS011;31738;50.188;8.524;2023-03-14T10:42:29;9.80;;;5.22;;
46006;SDS011;31738;50.188;8.524;2023-03-14T10:44:57;7.03;;;5.20;;
46006;SDS011;31738;50.188;8.524;2023-03-14T10:47:26;7.13;;;4.85;;
46006;SDS011;31738;50.188;8.524;2023-03-14T10:49:53;7.75;;;4.60;;
46006;SDS011;31738;50.188;8.524;2023-03-14T10:54:48;11.40;;;4.80;;
46006;SDS011;31738;50.188;8.524;2023-03-14T10:57:20;6.63;;;4.57;;
46006;SDS011;31738;50.188;8.524;2023-03-14T10:59:46;11.55;;;5.25;;
46006;SDS011;31738;50.188;8.524;2023-03-14T11:07:32;6.03;;;4.63;;
46006;SDS011;31738;50.188;8.524;2023-03-14T11:10:23;8.07;;;5.10;;
46006;SDS011;31738;50.188;8.524;2023-03-14T11:19:20;5.93;;;4.10;;
46006;SDS011;31738;50.188;8.524;2023-03-14T11:24:47;5.40;;;4.00;;
46006;SDS011;31738;50.188;8.524;2023-03-14T11:27:25;8.40;;;4.13;;
46006;SDS011;31738;50.188;8.524;2023-03-14T11:30:02;5.68;;;3.83;;
46006;SDS011;31738;50.188;8.524;2023-03-14T11:35:22;8.60;;;3.90;;
46006;SDS011;31738;50.188;8.524;2023-03-14T11:37:55;5.03;;;3.83;;
46006;SDS011;31738;50.188;8.524;2023-03-14T11:40:30;8.65;;;4.22;;
46006;SDS011;31738;50.188;8.524;2023-03-14T11:43:15;5.22;;;4.05;;
46006;SDS011;31738;50.188;8.524;2023-03-14T11:45:49;7.03;;;3.70;;
46006;SDS011;31738;50.188;8.524;2023-03-14T11:48:18;5.03;;;3.70;;
46006;SDS011;31738;50.188;8.524;2023-03-14T11:50:50;5.93;;;3.55;;
46006;SDS011;31738;50.188;8.524;2023-03-14T11:53:19;7.45;;;4.07;;
46006;SDS011;31738;50.188;8.524;2023-03-14T11:55:54;4.60;;;3.35;;
46006;SDS011;31738;50.188;8.524;2023-03-14T11:58:23;9.40;;;3.55;;
46006;SDS011;31738;50.188;8.524;2023-03-14T12:00:56;1.15;;;0.60;;
46006;SDS011;31738;50.188;8.524;2023-03-14T12:03:29;0.60;;;0.30;;
46006;SDS011;31738;50.188;8.524;2023-03-14T12:06:21;0.28;;;0.20;;
46006;SDS011;31738;50.188;8.524;2023-03-14T12:08:59;0.43;;;0.20;;
46006;SDS011;31738;50.188;8.524;2023-03-14T12:11:33;0.20;;;0.20;;
46006;SDS011;31738;50.188;8.524;2023-03-14T12:14:00;0.85;;;0.43;;
46006;SDS011;31738;50.188;8.524;2023-03-14T12:16:30;0.73;;;0.20;;
46006;SDS011;31738;50.188;8.524;2023-03-14T12:18:58;0.90;;;0.30;;
46006;SDS011;31738;50.188;8.524;2023-03-14T12:24:23;0.35;;;0.20;;
46006;SDS011;31738;50.188;8.524;2023-03-14T12:26:56;0.30;;;0.30;;
46006;SDS011;31738;50.188;8.524;2023-03-14T12:29:26;0.50;;;0.30;;
46006;SDS011;31738;50.188;8.524;2023-03-14T12:34:50;0.30;;;0.30;;
46006;SDS011;31738;50.188;8.524;2023-03-14T12:40:15;1.27;;;0.73;;
46006;SDS011;31738;50.188;8.524;2023-03-14T12:42:59;0.90;;;0.57;;
46006;SDS011;31738;50.188;8.524;2023-03-14T12:45:32;1.38;;;0.40;;
46006;SDS011;31738;50.188;8.524;2023-03-14T12:50:46;1.80;;;0.60;;
46006;SDS011;31738;50.188;8.524;2023-03-14T12:53:33;1.25;;;0.40;;
46006;SDS011;31738;50.188;8.524;2023-03-14T12:56:22;0.93;;;0.70;;
46006;SDS011;31738;50.188;8.524;2023-03-14T13:01:35;1.95;;;0.80;;
46006;SDS011;31738;50.188;8.524;2023-03-14T13:04:07;1.67;;;0.95;;
46006;SDS011;31738;50.188;8.524;2023-03-14T13:06:46;1.50;;;1.40;;
46006;SDS011;31738;50.188;8.524;2023-03-14T13:11:53;1.60;;;1.38;;
46006;SDS011;31738;50.188;8.524;2023-03-14T13:14:19;2.40;;;1.45;;
46006;SDS011;31738;50.188;8.524;2023-03-14T13:16:48;1.38;;;1.27;;
46006;SDS011;31738;50.188;8.524;2023-03-14T13:19:22;2.70;;;1.33;;
46006;SDS011;31738;50.188;8.524;2023-03-14T13:21:51;1.90;;;1.30;;
46006;SDS011;31738;50.188;8.524;2023-03-14T13:24:27;1.35;;;1.20;;
46006;SDS011;31738;50.188;8.524;2023-03-14T13:26:54;2.00;;;1.48;;
46006;SDS011;31738;50.188;8.524;2023-03-14T13:29:27;2.05;;;1.35;;
46006;SDS011;31738;50.188;8.524;2023-03-14T13:31:57;3.10;;;1.17;;
46006;SDS011;31738;50.188;8.524;2023-03-14T13:34:31;2.30;;;1.20;;
46006;SDS011;31738;50.188;8.524;2023-03-14T13:36:58;3.25;;;1.45;;
46006;SDS011;31738;50.188;8.524;2023-03-14T13:39:25;3.05;;;1.50;;
46006;SDS011;31738;50.188;8.524;2023-03-14T13:41:53;1.20;;;1.08;;
46006;SDS011;31738;50.188;8.524;2023-03-14T13:44:24;0.90;;;0.70;;
46006;SDS011;31738;50.188;8.524;2023-03-14T13:46:52;0.70;;;0.70;;
46006;SDS011;31738;50.188;8.524;2023-03-14T13:49:23;0.95;;;0.70;;
46006;SDS011;31738;50.188;8.524;2023-03-14T13:51:51;2.83;;;0.90;;
46006;SDS011;31738;50.188;8.524;2023-03-14T13:54:20;0.68;;;0.63;;
46006;SDS011;31738;50.188;8.524;2023-03-14T13:56:47;2.17;;;0.65;;
46006;SDS011;31738;50.188;8.524;2023-03-14T13:59:23;0.73;;;0.40;;
46006;SDS011;31738;50.188;8.524;2023-03-14T14:01:50;0.50;;;0.50;;
46006;SDS011;31738;50.188;8.524;2023-03-14T14:04:21;1.05;;;0.73;;
46006;SDS011;31738;50.188;8.524;2023-03-14T14:06:52;0.80;;;0.60;;
46006;SDS011;31738;50.188;8.524;2023-03-14T14:09:30;0.80;;;0.50;;
46006;SDS011;31738;50.188;8.524;2023-03-14T14:12:03;1.08;;;0.60;;
46006;SDS011;31738;50.188;8.524;2023-03-14T14:17:18;0.73;;;0.60;;
46006;SDS011;31738;50.188;8.524;2023-03-14T14:19:46;2.15;;;0.50;;
46006;SDS011;31738;50.188;8.524;2023-03-14T14:22:13;0.88;;;0.50;;
46006;SDS011;31738;50.188;8.524;2023-03-14T14:24:39;3.38;;;0.65;;
46006;SDS011;31738;50.188;8.524;2023-03-14T14:27:15;1.65;;;0.55;;
46006;SDS011;31738;50.188;8.524;2023-03-14T14:29:43;0.88;;;0.52;;
46006;SDS011;31738;50.188;8.524;2023-03-14T14:32:21;0.50;;;0.50;;
46006;SDS011;31738;50.188;8.524;2023-03-14T14:34:47;1.35;;;0.60;;
46006;SDS011;31738;50.188;8.524;2023-03-14T14:37:21;0.98;;;0.70;;
46006;SDS011;31738;50.188;8.524;2023-03-14T14:39:50;2.50;;;0.90;;
46006;SDS011;31738;50.188;8.524;2023-03-14T14:42:19;0.63;;;0.60;;
46006;SDS011;31738;50.188;8.524;2023-03-14T14:44:49;0.70;;;0.60;;
46006;SDS011;31738;50.188;8.524;2023-03-14T14:47:20;4.00;;;0.60;;
46006;SDS011;31738;50.188;8.524;2023-03-14T14:49:48;0.80;;;0.60;;
46006;SDS011;31738;50.188;8.524;2023-03-14T14:55:03;1.30;;;0.70;;
46006;SDS011;31738;50.188;8.524;2023-03-14T14:57:38;0.70;;;0.70;;
46006;SDS011;31738;50.188;8.524;2023-03-14T15:00:07;2.25;;;0.88;;
46006;SDS011;31738;50.188;8.524;2023-03-14T15:02:45;2.45;;;1.10;;
46006;SDS011;31738;50.188;8.524;2023-03-14T15:05:12;1.23;;;0.82;;
46006;SDS011;31738;50.188;8.524;2023-03-14T15:07:40;1.98;;;1.02;;
46006;SDS011;31738;50.188;8.524;2023-03-14T15:10:05;3.22;;;1.10;;
46006;SDS011;31738;50.188;8.524;2023-03-14T15:12:32;2.92;;;1.60;;
46006;SDS011;31738;50.188;8.524;2023-03-14T15:14:57;3.65;;;1.70;;
46006;SDS011;31738;50.188;8.524;2023-03-14T15:17:23;2.53;;;1.77;;
46006;SDS011;31738;50.188;8.524;2023-03-14T15:19:49;1.73;;;1.10;;
46006;SDS011;31738;50.188;8.524;2023-03-14T15:22:15;1.83;;;1.20;;
46006;SDS011;31738;50.188;8.524;2023-03-14T15:24:41;3.22;;;1.48;;
46006;SDS011;31738;50.188;8.524;2023-03-14T15:27:13;1.63;;;1.00;;
46006;SDS011;31738;50.188;8.524;2023-03-14T15:29:40;1.50;;;1.00;;
46006;SDS011;31738;50.188;8.524;2023-03-14T15:32:09;2.83;;;1.00;;
46006;SDS011;31738;50.188;8.524;2023-03-14T15:34:37;2.15;;;0.80;;
46006;SDS011;31738;50.188;8.524;2023-03-14T15:37:02;2.65;;;0.80;;
46006;SDS011;31738;50.188;8.524;2023-03-14T15:39:33;1.15;;;0.65;;
46006;SDS011;31738;50.188;8.524;2023-03-14T15:41:59;1.70;;;0.70;;
46006;SDS011;31738;50.188;8.524;2023-03-14T15:44:25;2.58;;;0.80;;
46006;SDS011;31738;50.188;8.524;2023-03-14T15:46:50;0.90;;;0.73;;
46006;SDS011;31738;50.188;8.524;2023-03-14T15:49:16;1.58;;;0.68;;
46006;SDS011;31738;50.188;8.524;2023-03-14T15:51:41;2.25;;;0.80;;
46006;SDS011;31738;50.188;8.524;2023-03-14T15:54:07;2.15;;;1.05;;
46006;SDS011;31738;50.188;8.524;2023-03-14T15:56:32;1.27;;;0.93;;
46006;SDS011;31738;50.188;8.524;2023-03-14T15:58:58;1.80;;;0.63;;
46006;SDS011;31738;50.188;8.524;2023-03-14T16:01:23;2.47;;;0.60;;
46006;SDS011;31738;50.188;8.524;2023-03-14T16:03:49;1.10;;;0.68;;
46006;SDS011;31738;50.188;8.524;2023-03-14T16:06:17;2.47;;;0.70;;